Wurtsboro, New York
Current Conditions -  °F | °C
As of 12:54 PM on Saturday 25 Oct 2014 (Local Time) from KMGJ Reporting Station
Broken Clouds Broken Clouds  
Wind Chill: 63°   Ceiling: 5500
Heat Index: 63°   Visibility: 10mi
Dew Point: 42°   Wind: 10mph
Humidity: 46%   Direction: 250°WSW
Pressure: 29.74"   Gusts: NA
Location:  41.58°N, 74.49°W
Report Text: KMGJ 251654Z AUTO 25009KT 10SM BKN055 17/06 A2974 RMK AO2 PRESFR SLP071 T01720056 TSNO $
Loading
Personal Weather Stations






























Interactive Weather Map
Tropical Storm Tracking
New forecast layout! Learn more

10-Day Weather Forecast

Advertisements
Track Severe Weather on mobile